Main page
METAR-TAF:

METAR-TAF

Airports :

Cecil Airport

Jacksonville, Florida, United States

latitude: 30-13-07N, longitude: 081-52-36W, elevation: 82 ft

Current weather observation

The report was made 3 hours and 10 minutes ago, at 00:50 UTC
Wind 5 mph from the East
Temperature 72°F
Humidity 83%
Pressure 30.02 in. Hg
Visibility: 10 miles
Clear sky

METAR: KVQQ 260050Z 09004KT 10SM CLR 22/19 A3002

Time: 00:00 (04:00 UTC)

Forecast

The report was made 4 hours and 34 minutes ago, at 23:26 UTC
Forecast valid from 26 at 00 UTC to 26 at 24 UTC
Wind 5 mph from variable directions
Visibility: 6 miles
Few clouds at a height of 5000 ft
Scattered clouds at a height of 25000 ft
From 26 at 1800 UTC
Wind 9 mph from the Northeast
Visibility: 6 miles
Scattered clouds at a height of 5000 ft

TAF: KVQQ 252326Z 2600/2624 VRB04KT P6SM FEW050 SCT250 FM261800 05008KT P6SM SCT050

Weather observations and forecasts of more than 4000 airports (METAR and TAF reports).

The available stations are represented by yellow and red dots on the map.

Hover mouse over dot to see the name of the station.

Then click to see weather observations and forecasts.

To change the map : click on the green buttons with a black cross to zoom in, on the green button with a dash to zoom out, or on the green arrows for adjacent maps.


METAR-TAF: